KMCI/MCI METAR and TAF weather

Enter ICAO airport designator
Station Type Date Time Source
KMCI METAR 2020/09/30 13:53 UTC NOAA

KMCI 301353Z 27007KT 10SM FEW200 17/06 A2984 RMK AO2 SLP102 T01720061


Station Type Date Time Source
KMCI Decoded METAR 2020/09/30 13:53 UTC NOAA

KANSAS CITY INTERNATIONAL AIRPORT, MO, United States (KMCI) 39-18N 94-44W 320M
Sep 30, 2020 - 09:53 AM EDT / 2020.09.30 1353 UTC
Wind: from the W (270 degrees) at 8 MPH (7 KT):0
Visibility: 10 mile(s):0
Sky conditions: mostly clear
Temperature: 63.0 F (17.2 C)
Dew Point: 43.0 F (6.1 C)
Relative Humidity: 47%
Pressure (altimeter): 29.84 in. Hg (1010 hPa)
ob: KMCI 301353Z 27007KT 10SM FEW200 17/06 A2984 RMK AO2 SLP102 T01720061
cycle: 14

Station Type Date Time Source
KMCI TAF 2020/09/30 12:22 UTC NOAA

TAF KMCI 301120Z 3012/0112 22007KT P6SM SKC
FM301500 33012G26KT P6SM FEW250
FM302300 32006KT P6SM SKC

Example: see airport list